Flight Track Log - Related Links

Times and Time Zones

All times are in EDT time to prevent confusion due to time zone crossing. See the GJS3707 flight status page for this flight to view local times or setup timezone preferences in your user account.

Time Position Orientation Groundspeed Altitude Reporting Facility
EDT Latitude Longitude Course Direction KTS MPH feet Rate Location/Type
Fri 03:24:32 PM 43.5844 -116.2911 65° Northeast 181 208 5,100  Level Salt Lake Center
Fri 03:25:34 PM 43.6306 -116.3203 335° Northwest 220 253 7,200 1,984 Climbing Salt Lake Center
Fri 03:26:36 PM 43.6461 -116.2222 78° East 261 300 9,200 1,707 Climbing Salt Lake Center
Fri 03:27:00 PM 43.6559 -115.5700 78° East  Level FlightAware Approximate
Fri 03:27:37 PM 43.6567 -116.1214 82° East 282 325 10,700  Level Salt Lake Center
Fri 03:28:00 PM 43.6754 -115.4043 83° East  Level FlightAware Approximate
Fri 03:28:39 PM 43.6753 -115.9786 80° East 338 389 12,400  Level Salt Lake Center
Fri 03:29:00 PM 43.6974 -115.2412 65° Northeast  Level FlightAware Approximate
Fri 03:29:41 PM 43.6908 -115.8533 80° East 346 398 14,000  Level Salt Lake Center
Fri 03:30:43 PM 43.7094 -115.7033 80° East 355 409 16,000 1,597 Climbing Salt Lake Center
Fri 03:31:45 PM 43.7261 -115.5669 80° East 373 429 17,300 1,366 Climbing Salt Lake Center
Fri 03:32:46 PM 43.7439 -115.4231 80° East 392 451 18,800 1,659 Climbing Salt Lake Center
Fri 03:33:48 PM 43.7650 -115.2528 80° East 401 461 20,700 1,597 Climbing Salt Lake Center
Fri 03:34:50 PM 43.7828 -115.1039 81° East 410 472 22,100 1,463 Climbing Salt Lake Center
Fri 03:35:51 PM 43.8039 -114.9278 81° East 416 479 23,700 1,268 Climbing Salt Lake Center
Fri 03:36:53 PM 43.8222 -114.7731 81° East 424 488 24,700 1,016 Climbing Salt Lake Center
Fri 03:37:55 PM 43.8433 -114.5878 81° East 438 504 25,800 1,073 Climbing Salt Lake Center
Fri 03:38:56 PM 43.8625 -114.4250 81° East 446 513 26,900 1,220 Climbing Salt Lake Center
Fri 03:39:58 PM 43.8844 -114.2344 81° East 448 516 28,300 1,016 Climbing Salt Lake Center
Fri 03:41:00 PM 43.9028 -114.0692 81° East 454 522 29,000 683 Climbing Salt Lake Center
Fri 03:42:01 PM 43.9231 -113.8875 81° East 459 528 29,700 683 Climbing Salt Lake Center
Fri 03:43:03 PM 43.9408 -113.7150 82° East 469 540 30,400 683 Climbing Salt Lake Center
Fri 03:44:04 PM 43.9603 -113.5133 82° East 475 547 31,100 677 Climbing Salt Lake Center
Fri 03:45:07 PM 43.9778 -113.3375 82° East 481 554 31,800 780 Climbing Salt Lake Center
Fri 03:46:07 PM 43.9986 -113.1328 82° East 480 552 32,700 885 Climbing Salt Lake Center
Fri 03:47:09 PM 44.0169 -112.9586 82° East 477 549 33,600 919 Climbing Salt Lake Center
Fri 03:48:11 PM 44.0350 -112.7872 82° East 471 542 34,600 683 Climbing Salt Lake Center
Fri 03:49:12 PM 44.0542 -112.5872 82° East 469 540 35,000 197 Climbing Salt Lake Center
Fri 03:50:13 PM 44.0686 -112.4117 83° East 476 548 35,000  Level Salt Lake Center
Fri 03:51:15 PM 44.0872 -112.2067 83° East 479 551 35,000  Level Salt Lake Center
Fri 03:53:18 PM 44.0931 -111.8344 89° East 467 537 35,000  Level Salt Lake Center
Fri 03:54:19 PM 44.0931 -111.6594 90° East 474 545 35,000  Level Salt Lake Center
Fri 03:55:21 PM 44.0928 -111.4842 90° East 478 550 35,000  Level Salt Lake Center
Fri 03:56:22 PM 44.0944 -111.2767 89° East 483 556 35,000  Level Salt Lake Center
Fri 03:57:24 PM 44.0939 -111.0986 90° East 484 557 35,000  Level Salt Lake Center
Fri 03:58:25 PM 44.0939 -110.8900 90° East 485 558 35,000  Level Salt Lake Center
Fri 03:59:26 PM 44.0936 -110.7094 90° East 489 563 35,000  Level Salt Lake Center
Fri 04:00:29 PM 44.0933 -110.4981 90° East 491 565 35,000  Level Salt Lake Center
Fri 04:01:31 PM 44.0919 -110.3178 91° East 490 564 35,000  Level Salt Lake Center
Fri 04:02:32 PM 44.0908 -110.1072 90° East 489 563 35,000  Level Salt Lake Center
Fri 04:03:33 PM 44.0886 -109.9264 91° East 489 563 35,000  Level Salt Lake Center
Fri 04:04:35 PM 44.0872 -109.7456 91° East 491 565 35,000  Level Salt Lake Center
Fri 04:05:36 PM 44.0864 -109.5367 90° East 486 559 35,000  Level Salt Lake Center
Fri 04:06:38 PM 44.1344 -109.3583 69° East 510 587 35,000  Level Salt Lake Center
Fri 04:07:39 PM 44.1981 -109.1569 66° East 509 586 35,000  Level Salt Lake Center
Fri 04:08:41 PM 44.2533 -108.9836 66° East 511 588 35,000  Level Salt Lake Center
Fri 04:09:42 PM 44.3086 -108.8100 66° East 512 589 35,000  Level Salt Lake Center
Fri 04:10:44 PM 44.3706 -108.6086 67° East 506 582 35,000  Level Salt Lake Center
Fri 04:11:45 PM 44.3869 -108.4331 82° East 479 551 35,000  Level Salt Lake Center
Fri 04:12:47 PM 44.3831 -108.2308 91° East 469 540 35,000  Level Salt Lake Center
Fri 04:13:48 PM 44.3792 -108.0594 92° East 466 536 35,000  Level Salt Lake Center
Fri 04:14:50 PM 44.3744 -107.8542 92° East 475 547 35,000  Level Salt Lake Center
Fri 04:15:51 PM 44.3692 -107.6736 92° East 484 557 35,000 244 Level Salt Lake Center
Fri 04:16:53 PM 44.3653 -107.4933 92° East 488 562 35,500 732 Climbing Salt Lake Center
Fri 04:17:54 PM 44.3592 -107.2817 92° East 491 565 36,500 732 Climbing Salt Lake Center
Fri 04:18:56 PM 44.3547 -107.1047 92° East 481 554 37,000 244 Climbing Salt Lake Center
Fri 04:19:57 PM 44.3475 -106.8956 93° East 483 556 37,000  Level Salt Lake Center
Fri 04:20:59 PM 44.3428 -106.7136 92° East 488 562 37,000  Level Salt Lake Center
Fri 04:22:00 PM 44.3361 -106.5000 92° East 493 567 37,000  Level Salt Lake Center
Fri 04:22:15 PM 44.3344 -106.4708 95° East 491 565 37,000  Level Denver Center
Fri 04:23:16 PM 44.3281 -106.2567 92° East 493 567 37,000  Level Denver Center
Fri 04:24:18 PM 44.3206 -106.0839 93° East 492 566 37,000  Level Denver Center
Fri 04:25:20 PM 44.3175 -105.8717 91° East 489 563 37,000  Level Denver Center
Fri 04:26:22 PM 44.3325 -105.6886 83° East 494 568 37,000  Level Denver Center
Fri 04:27:24 PM 44.3469 -105.4761 84° East 492 566 37,000  Level Denver Center
Fri 04:28:26 PM 44.3581 -105.2942 85° East 491 565 37,000  Level Denver Center
Fri 04:29:28 PM 44.3592 -105.1153 89° East 485 558 37,000  Level Denver Center
Fri 04:30:29 PM 44.3464 -104.9069 95° East 481 554 37,000  Level Denver Center
Fri 04:31:31 PM 44.3364 -104.7289 94° East 480 552 37,000  Level Denver Center
Fri 04:32:33 PM 44.3242 -104.5233 95° East 477 549 37,000  Level Denver Center
Fri 04:33:35 PM 44.3131 -104.3464 95° East 478 550 37,000  Level Denver Center
Fri 04:34:37 PM 44.3019 -104.1411 94° East 474 545 37,000  Level Denver Center
Fri 04:35:38 PM 44.2900 -103.9631 95° East 479 551 37,000  Level Denver Center
Fri 04:36:40 PM 44.2786 -103.7892 95° East 473 544 37,000  Level Denver Center
Fri 04:37:42 PM 44.2644 -103.5822 95° East 478 550 37,000  Level Denver Center
Fri 04:38:44 PM 44.2528 -103.4075 95° East 474 545 37,000  Level Denver Center
Fri 04:39:46 PM 44.2403 -103.2064 95° East 470 541 37,000  Level Denver Center
Fri 04:40:47 PM 44.2269 -103.0389 96° East 472 543 37,000  Level Denver Center
Fri 04:41:49 PM 44.2142 -102.8586 96° East 471 542 37,000  Level Denver Center
Fri 04:42:51 PM 44.1978 -102.6400 96° East 472 543 37,000  Level Denver Center
Fri 04:43:53 PM 44.1833 -102.4581 96° East 475 547 37,000  Level Denver Center
Fri 04:44:54 PM 44.1692 -102.2758 96° East 474 545 37,000  Level Denver Center
Fri 04:45:56 PM 44.1519 -102.0939 97° East 474 545 37,000  Level Denver Center
Fri 04:46:58 PM 44.1358 -101.9103 97° East 478 550 37,000  Level Denver Center
Fri 04:47:59 PM 44.1192 -101.7278 97° East 477 549 37,000  Level Denver Center
Fri 04:49:01 PM 44.1033 -101.5472 97° East 475 547 37,000  Level Denver Center
Fri 04:50:03 PM 44.0892 -101.3372 95° East 465 535 37,000  Level Denver Center
Fri 04:51:05 PM 44.0733 -101.1561 97° East 472 543 37,000  Level Denver Center
Fri 04:52:06 PM 44.0561 -100.9767 98° East 472 543 37,000  Level Denver Center
Fri 04:52:33 PM 44.0531 -100.9425 97° East 468 539 37,000  Level Minneapolis Center
Fri 04:53:35 PM 44.0336 -100.7261 97° East 471 542 37,000  Level Minneapolis Center
Fri 04:54:37 PM 44.0164 -100.5469 98° East 472 543 37,000  Level Minneapolis Center
Fri 04:55:39 PM 43.9953 -100.3308 98° East 473 544 37,000  Level Minneapolis Center
Fri 04:56:42 PM 43.9775 -100.1519 98° East 472 543 37,000  Level Minneapolis Center
Fri 04:57:44 PM 43.9606 -99.9731 97° East 471 542 37,000  Level Minneapolis Center
Fri 04:58:45 PM 43.9467 -99.8289 98° East 472 543 37,000  Level Minneapolis Center
Fri 04:59:48 PM 43.9244 -99.6136 98° East 473 544 37,000  Level Minneapolis Center
Fri 05:00:50 PM 43.9019 -99.3997 98° East 470 541 37,000  Level Minneapolis Center
Fri 05:01:52 PM 43.8836 -99.2211 98° East 470 541 37,000  Level Minneapolis Center
Fri 05:02:54 PM 43.8644 -99.0411 98° East 473 544 37,000  Level Minneapolis Center
Fri 05:03:56 PM 43.8453 -98.8633 98° East 470 541 37,000  Level Minneapolis Center
Fri 05:04:58 PM 43.8228 -98.6633 99° East 472 543 37,000  Level Minneapolis Center
Fri 05:06:00 PM 43.8022 -98.4844 99° East 473 544 37,000  Level Minneapolis Center
Fri 05:07:02 PM 43.7828 -98.3067 99° East 472 543 37,000  Level Minneapolis Center
Fri 05:08:04 PM 43.7600 -98.1286 100° East 472 543 37,000  Level Minneapolis Center
Fri 05:09:06 PM 43.7397 -97.9522 99° East 469 540 37,000  Level Minneapolis Center
Fri 05:10:08 PM 43.7156 -97.7369 99° East 473 544 37,000  Level Minneapolis Center
Fri 05:11:11 PM 43.6939 -97.5594 100° East 473 544 37,000  Level Minneapolis Center
Fri 05:12:13 PM 43.6722 -97.3822 100° East 472 543 37,000  Level Minneapolis Center
Fri 05:13:27 PM 43.6508 -97.2064 99° East 468 539 37,000  Level Minneapolis Center
Fri 05:14:29 PM 43.6233 -96.9950 100° East 471 542 37,000  Level Minneapolis Center
Fri 05:15:31 PM 43.5964 -96.7833 100° East 470 541 37,000  Level Minneapolis Center
Fri 05:16:33 PM 43.5528 -96.6186 110° East 461 531 37,000  Level Minneapolis Center
Fri 05:17:35 PM 43.4922 -96.4583 117° Southeast 473 544 37,000  Level Minneapolis Center
Fri 05:18:37 PM 43.4317 -96.3036 118° Southeast 469 540 37,000  Level Minneapolis Center
Fri 05:19:39 PM 43.3714 -96.1461 118° Southeast 469 540 37,000  Level Minneapolis Center
Fri 05:20:42 PM 43.3003 -95.9597 118° Southeast 465 535 37,000  Level Minneapolis Center
Fri 05:21:44 PM 43.2397 -95.8019 118° Southeast 469 540 37,000  Level Minneapolis Center
Fri 05:22:46 PM 43.1806 -95.6456 117° Southeast 467 537 37,000  Level Minneapolis Center
Fri 05:23:48 PM 43.1211 -95.4900 118° Southeast 465 535 37,000  Level Minneapolis Center
Fri 05:24:50 PM 43.0608 -95.3322 118° Southeast 469 540 37,000  Level Minneapolis Center
Fri 05:25:52 PM 42.9894 -95.1444 117° Southeast 468 539 37,000  Level Minneapolis Center
Fri 05:26:54 PM 42.9308 -94.9881 117° Southeast 466 536 37,000  Level Minneapolis Center
Fri 05:27:55 PM 42.8881 -94.8600 114° Southeast 467 537 37,000  Level Minneapolis Center
Fri 05:28:58 PM 42.8367 -94.6611 109° East 465 535 37,000  Level Minneapolis Center
Fri 05:30:00 PM 42.7872 -94.4750 110° East 469 540 37,000  Level Minneapolis Center
Fri 05:31:02 PM 42.7767 -94.3019 95° East 462 532 37,000  Level Minneapolis Center
Fri 05:32:04 PM 42.7728 -94.1283 92° East 465 535 37,000  Level Minneapolis Center
Fri 05:33:06 PM 42.7692 -93.9536 92° East 465 535 37,000  Level Minneapolis Center
Fri 05:34:08 PM 42.7661 -93.7803 91° East 463 533 37,000 -290 Level Minneapolis Center
Fri 05:35:10 PM 42.7597 -93.5706 92° East 466 536 36,400 -768 Descending Minneapolis Center
Fri 05:36:13 PM 42.7556 -93.3947 92° East 468 539 35,400 -672 Descending Minneapolis Center
Fri 05:37:15 PM 42.7500 -93.2169 92° East 472 543 35,000 -194 Descending Minneapolis Center
Fri 05:38:17 PM 42.7458 -93.0431 92° East 467 537 35,000  Level Minneapolis Center
Fri 05:39:19 PM 42.7397 -92.8703 93° East 463 533 35,000  Level Minneapolis Center
Fri 05:40:21 PM 42.7333 -92.6644 92° East 459 528 35,000  Level Minneapolis Center
Fri 05:41:23 PM 42.7272 -92.4931 93° East 458 527 35,000  Level Minneapolis Center
Fri 05:42:25 PM 42.7217 -92.3206 92° East 461 531 35,000  Level Minneapolis Center
Fri 05:43:27 PM 42.7144 -92.1500 93° East 459 528 35,000  Level Minneapolis Center
Fri 05:44:29 PM 42.7064 -91.9450 93° East 459 528 35,000  Level Minneapolis Center
Fri 05:45:31 PM 42.6989 -91.7742 93° East 460 529 35,000  Level Minneapolis Center
Fri 05:46:33 PM 42.6925 -91.6117 93° East 462 532 35,000  Level Minneapolis Center
Fri 05:47:35 PM 42.6842 -91.4372 94° East 464 534 35,000 -526 Level Minneapolis Center
Fri 05:48:50 PM 42.6744 -91.2008 93° East 462 532 33,800 -1,226 Descending Chicago Center
Fri 05:49:52 PM 42.6658 -91.0289 94° East 463 533 32,200 -1,452 Descending Chicago Center
Fri 05:50:54 PM 42.6586 -90.8572 93° East 462 532 30,800 -1,500 Descending Chicago Center
Fri 05:51:56 PM 42.6494 -90.6881 94° East 456 525 29,100 -1,790 Descending Chicago Center
Fri 05:52:58 PM 42.6386 -90.4856 94° East 453 521 27,100 -1,742 Descending Chicago Center
Fri 05:54:00 PM 42.6294 -90.3197 94° East 447 514 25,500 -1,488 Descending Chicago Center
Fri 05:55:03 PM 42.6206 -90.1553 94° East 444 511 24,000 -1,488 Descending Chicago Center
Fri 05:56:05 PM 42.6117 -89.9917 94° East 440 506 22,400 -1,597 Descending Chicago Center
Fri 05:57:07 PM 42.6014 -89.8222 95° East 428 493 20,700 -1,694 Descending Chicago Center
Fri 05:58:09 PM 42.5908 -89.6408 94° East 414 476 18,900 -1,548 Descending Chicago Center
Fri 05:59:11 PM 42.5819 -89.4903 95° East 403 464 17,500 -1,403 Descending Chicago Center
Fri 06:00:13 PM 42.5719 -89.3422 95° East 396 456 16,000 -1,258 Descending Chicago Center
Fri 06:01:15 PM 42.5633 -89.1978 95° East 387 445 14,900 -1,403 Descending Chicago Center
Fri 06:02:17 PM 42.5372 -89.0386 103° East 372 428 13,100 -1,597 Descending Chicago Center
Fri 06:03:19 PM 42.4986 -88.9092 112° Southeast 370 426 11,600 -1,306 Descending Chicago Center
Fri 06:04:21 PM 42.4622 -88.7894 112° Southeast 348 400 10,400 -1,200 Descending Chicago Center
Fri 06:05:24 PM 42.4319 -88.6858 112° Southeast 302 348 9,100 -672 Descending Chicago Center
Fri 06:06:26 PM 42.4008 -88.5883 113° Southeast 288 331 9,000 -48 Descending Chicago Center
Fri 06:07:28 PM 42.3625 -88.4750 115° Southeast 287 330 9,000 -387 Level Chicago Center
Fri 06:08:30 PM 42.2950 -88.4581 169° South 277 319 8,200 -484 Descending Chicago Center
Fri 06:09:32 PM 42.2217 -88.4464 173° South 268 308 8,000 -145 Descending Chicago Center
Fri 06:10:34 PM 42.1453 -88.4314 172° South 233 268 7,900 -629 Descending Chicago Center
Fri 06:11:36 PM 42.0831 -88.4231 174° South 225 259 6,700 -919 Descending Chicago Center
Fri 06:12:38 PM 42.0244 -88.4100 171° South 219 252 6,000 -581 Descending Chicago Center
Fri 06:13:40 PM 41.9817 -88.3675 144° Southeast 197 227 5,500 -484 Descending Chicago Center
Fri 06:14:42 PM 41.9661 -88.3031 108° East 182 209 5,000 -240 Descending Chicago Center
Fri 06:15:45 PM 41.9669 -88.2333 89° East 184 212 5,000 -576 Level Chicago Center
Fri 06:16:47 PM 41.9686 -88.1503 88° East 186 214 3,800 -1,096 Descending Chicago Center
Fri 06:17:29 PM 41.9667 -88.1000 93° East 174 200 3,100 -1,000 Descending Chicago TRACON

Login

Don't have an account? Register now (free) for customized features, flight alerts, and more!